Time;durP1;ratioP1;P1;durP2;ratioP2;P2;SDS_P1;SDS_P2;PMS_P1;PMS_P2;Temp;Humidity;BMP_temperature;BMP_pressure;BME280_temperature;BME280_humidity;BME280_pressure;Samples;Min_cycle;Max_cycle;Signal;HPM_P1;HPM_P2
2022/06/11 00:01:56;;;;;;;11.77;5.85;;;;;;;16.03;82.69;102014.19;4990704;28;20485;-74
2022/06/11 00:04:33;;;;;;;10.25;5.57;;;;;;;16.02;81.80;102019.81;5008037;28;20486;-74
2022/06/11 00:07:11;;;;;;;10.98;5.40;;;;;;;16.01;81.62;102010.72;5008650;28;20493;-73
2022/06/11 00:09:37;;;;;;;9.13;5.53;;;;;;;15.95;82.97;102010.31;5004075;28;20069;-74
2022/06/11 00:12:04;;;;;;;7.25;5.30;;;;;;;15.91;83.00;102011.53;5004782;28;20081;-73
2022/06/11 00:14:31;;;;;;;11.25;5.75;;;;;;;15.88;83.32;102015.38;4989424;28;20436;-74
2022/06/11 00:16:58;;;;;;;19.27;5.93;;;;;;;15.88;83.50;102015.38;4972096;28;20042;-75
2022/06/11 00:19:25;;;;;;;10.02;5.20;;;;;;;15.87;82.74;102021.00;4989612;28;20038;-72
2022/06/11 00:21:53;;;;;;;12.27;5.35;;;;;;;15.85;82.90;102018.34;5004704;28;20466;-74
2022/06/11 00:24:20;;;;;;;8.13;5.18;;;;;;;15.85;82.76;102012.88;4996838;28;20552;-73
2022/06/11 00:26:47;;;;;;;7.93;4.82;;;;;;;15.81;82.52;102012.25;4989759;28;20374;-73
2022/06/11 00:29:17;;;;;;;15.18;5.30;;;;;;;15.78;83.13;102017.09;4984705;28;20437;-74
2022/06/11 00:31:43;;;;;;;9.13;5.10;;;;;;;15.76;82.90;102017.22;4991784;28;20561;-73
2022/06/11 00:34:09;;;;;;;12.52;5.28;;;;;;;15.76;83.29;102013.56;5006778;28;20482;-74
2022/06/11 00:36:35;;;;;;;7.60;5.03;;;;;;;15.72;82.89;102006.59;4998023;28;20062;-74
2022/06/11 00:39:01;;;;;;;13.35;5.85;;;;;;;15.74;82.96;102013.69;4989210;28;20037;-73
2022/06/11 00:41:28;;;;;;;10.65;5.80;;;;;;;15.70;83.25;102005.81;4989698;28;20501;-73
2022/06/11 00:43:53;;;;;;;9.55;5.15;;;;;;;15.68;82.85;102008.66;4988694;28;20092;-74
2022/06/11 00:46:41;;;;;;;7.93;4.82;;;;;;;15.69;82.43;101996.69;4999959;28;20109;-71
2022/06/11 00:49:29;;;;;;;10.73;4.70;;;;;;;15.63;82.81;101993.53;5000450;28;20413;-74
2022/06/11 00:52:13;;;;;;;7.38;4.40;;;;;;;15.57;82.93;101994.84;4990142;28;20154;-75
2022/06/11 00:54:42;;;;;;;9.05;4.78;;;;;;;15.50;83.16;102005.41;4997271;28;20060;-74
2022/06/11 00:57:08;;;;;;;8.32;4.68;;;;;;;15.45;83.03;101993.91;4986717;28;20026;-74
2022/06/11 00:59:46;;;;;;;7.47;4.80;;;;;;;15.39;83.66;101993.47;4973437;28;20074;-74
2022/06/11 01:02:12;;;;;;;7.90;4.68;;;;;;;15.36;83.33;102000.06;4972035;28;20451;-75
2022/06/11 01:04:47;;;;;;;6.78;4.43;;;;;;;15.32;82.97;101998.53;4999898;28;20038;-74
2022/06/11 01:07:32;;;;;;;6.38;4.70;;;;;;;15.22;83.84;101998.34;4987229;28;20074;-75
2022/06/11 01:10:07;;;;;;;8.02;4.95;;;;;;;15.18;83.81;101991.34;4971029;28;20040;-74
2022/06/11 01:12:51;;;;;;;5.65;4.50;;;;;;;15.14;84.01;101991.69;4979461;28;20490;-73
2022/06/11 01:15:49;;;;;;;8.80;4.97;;;;;;;15.09;85.19;101992.00;4973406;28;20034;-74
2022/06/11 01:18:23;;;;;;;8.27;4.60;;;;;;;15.07;84.02;101995.88;4913164;28;20043;-74
2022/06/11 01:21:10;;;;;;;9.77;5.63;;;;;;;15.05;84.43;101996.84;4986794;28;20076;-74
2022/06/11 01:23:41;;;;;;;7.00;4.85;;;;;;;15.00;84.15;102001.78;5002164;28;20046;-74
2022/06/11 01:26:46;;;;;;;8.93;5.07;;;;;;;14.97;84.99;101995.66;4989163;28;20034;-75
2022/06/11 01:29:11;;;;;;;7.15;4.95;;;;;;;14.91;85.12;101999.69;4987592;28;20140;-74
2022/06/11 01:32:07;;;;;;;6.63;4.90;;;;;;;14.93;84.96;102005.97;4955448;28;20042;-74
2022/06/11 01:34:32;;;;;;;5.97;5.05;;;;;;;14.95;85.54;101994.88;4999695;28;20037;-75
2022/06/11 01:37:06;;;;;;;7.45;5.53;;;;;;;14.94;86.35;101994.00;4995079;28;20679;-75
2022/06/11 01:39:38;;;;;;;12.82;5.35;;;;;;;14.96;86.40;101991.16;4970945;28;20038;-75
2022/06/11 01:42:30;;;;;;;10.27;5.25;;;;;;;14.93;85.95;101988.66;4989455;28;20450;-75
2022/06/11 01:45:29;;;;;;;8.57;4.93;;;;;;;14.90;85.73;101994.34;4971419;28;20038;-74
2022/06/11 01:47:57;;;;;;;9.23;5.35;;;;;;;14.86;86.26;101998.28;4989776;28;20038;-75
2022/06/11 01:50:25;;;;;;;8.77;5.38;;;;;;;14.86;86.74;101990.06;4986646;28;20041;-74
2022/06/11 01:53:07;;;;;;;10.13;6.00;;;;;;;14.85;86.58;101985.59;4988867;28;20041;-73
2022/06/11 01:56:22;;;;;;;6.88;5.10;;;;;;;14.83;85.49;101982.97;4988952;28;20046;-75
2022/06/11 01:59:17;;;;;;;9.23;5.05;;;;;;;14.81;85.41;101987.66;4931097;28;20494;-75
2022/06/11 02:02:00;;;;;;;7.07;4.72;;;;;;;14.85;85.36;101994.69;5002536;28;20073;-74
2022/06/11 02:04:53;;;;;;;8.48;4.82;;;;;;;14.80;85.16;101988.66;5004756;28;20033;-74
2022/06/11 02:07:57;;;;;;;11.15;5.28;;;;;;;14.81;84.93;101990.41;4990942;28;20516;-74
2022/06/11 02:10:33;;;;;;;8.85;5.00;;;;;;;14.76;85.74;101992.59;4983823;28;20041;-75
2022/06/11 02:13:05;;;;;;;7.38;4.90;;;;;;;14.73;85.28;101988.19;4987162;28;20038;-74
2022/06/11 02:16:02;;;;;;;10.60;5.15;;;;;;;14.71;85.51;101987.44;4988816;28;20489;-75
2022/06/11 02:18:29;;;;;;;8.80;4.63;;;;;;;14.68;85.38;101993.13;4983635;28;20046;-74
2022/06/11 02:21:09;;;;;;;10.10;5.25;;;;;;;14.67;86.54;101988.66;4988644;28;20092;-74
2022/06/11 02:23:43;;;;;;;7.13;4.85;;;;;;;14.68;85.83;101993.13;4970778;28;20053;-75
2022/06/11 02:26:16;;;;;;;6.90;5.07;;;;;;;14.67;85.97;101996.88;4997715;28;20113;-74
2022/06/11 02:28:45;;;;;;;7.40;5.90;;;;;;;14.66;85.98;101999.72;4990881;28;20030;-75
2022/06/11 02:31:14;;;;;;;7.93;5.32;;;;;;;14.57;86.44;102001.25;5008065;28;20045;-75
2022/06/11 02:33:41;;;;;;;7.55;5.55;;;;;;;14.54;86.50;102007.81;4983830;28;20037;-75
2022/06/11 02:36:10;;;;;;;8.95;5.60;;;;;;;14.51;85.79;102004.44;5000443;28;20034;-75
2022/06/11 02:38:35;;;;;;;7.03;5.72;;;;;;;14.46;86.07;102010.19;4970929;28;20031;-75
2022/06/11 02:41:09;;;;;;;10.25;5.72;;;;;;;14.46;86.00;102003.84;4974280;28;20045;-75
2022/06/11 02:43:35;;;;;;;10.40;5.55;;;;;;;14.45;86.56;102011.16;4973225;28;20173;-72
2022/06/11 02:46:40;;;;;;;9.00;5.22;;;;;;;14.41;86.57;102011.47;4992083;28;20188;-74
2022/06/11 02:48:47;;;;;;;8.48;5.18;;;;;;;14.39;86.84;102013.47;4991978;28;20077;-74
2022/06/11 02:51:13;;;;;;;7.85;5.18;;;;;;;14.38;86.31;102012.59;5001409;28;20065;-74
2022/06/11 02:53:38;;;;;;;6.63;4.65;;;;;;;14.38;86.57;102014.44;4986444;28;20117;-74
2022/06/11 02:56:04;;;;;;;10.93;5.50;;;;;;;14.37;87.10;102012.72;4974378;28;20034;-74
2022/06/11 02:58:29;;;;;;;14.70;5.47;;;;;;;14.36;86.95;102020.06;4998175;28;20037;-74
2022/06/11 03:00:55;;;;;;;7.82;5.18;;;;;;;14.35;86.90;102021.00;4991705;28;20044;-74
2022/06/11 03:03:22;;;;;;;8.85;5.13;;;;;;;14.34;87.24;102027.47;4993698;28;20034;-74
2022/06/11 03:05:47;;;;;;;8.73;4.82;;;;;;;14.33;86.45;102027.59;4973687;28;20519;-74
2022/06/11 03:08:13;;;;;;;7.22;4.95;;;;;;;14.35;86.65;102023.75;4991132;28;20062;-74
2022/06/11 03:10:38;;;;;;;8.90;5.25;;;;;;;14.33;86.63;102023.00;4974122;28;20031;-73
2022/06/11 03:13:05;;;;;;;8.02;5.03;;;;;;;14.37;86.47;102037.34;4973903;28;20053;-74
2022/06/11 03:15:31;;;;;;;7.95;4.70;;;;;;;14.35;86.86;102026.47;4975313;28;20053;-74
2022/06/11 03:17:58;;;;;;;6.60;4.55;;;;;;;14.41;86.30;102034.28;4957977;28;20042;-74
2022/06/11 03:20:26;;;;;;;10.15;5.05;;;;;;;14.43;86.72;102026.84;4994998;28;20478;-74
2022/06/11 03:22:52;;;;;;;12.77;5.38;;;;;;;14.47;86.08;102039.31;5008857;28;20496;-73
2022/06/11 03:25:18;;;;;;;10.15;4.55;;;;;;;14.49;87.45;102042.84;5003717;28;20041;-74
2022/06/11 03:27:44;;;;;;;7.72;5.20;;;;;;;14.54;87.09;102035.19;5001552;28;20173;-74
2022/06/11 03:30:12;;;;;;;6.32;5.00;;;;;;;14.59;87.34;102047.69;4992948;28;20108;-74
2022/06/11 03:32:37;;;;;;;14.00;4.90;;;;;;;14.65;86.93;102044.53;4991349;28;20481;-73
2022/06/11 03:35:05;;;;;;;6.13;4.60;;;;;;;14.70;87.03;102048.72;4988332;28;20037;-75
2022/06/11 03:37:31;;;;;;;7.80;5.05;;;;;;;14.74;86.60;102046.63;5000056;28;20493;-74
2022/06/11 03:39:57;;;;;;;8.18;4.20;;;;;;;14.78;86.60;102048.13;4990576;28;20497;-74
2022/06/11 03:42:23;;;;;;;11.82;4.95;;;;;;;14.81;86.73;102053.41;5003140;28;20030;-73
2022/06/11 03:44:48;;;;;;;7.57;4.57;;;;;;;14.85;86.66;102051.34;4992594;28;20030;-74
2022/06/11 03:47:13;;;;;;;6.60;4.28;;;;;;;14.90;86.65;102060.97;4993418;28;20449;-74
2022/06/11 03:49:39;;;;;;;8.00;4.63;;;;;;;14.94;86.49;102062.53;4991365;28;20467;-74
2022/06/11 03:52:05;;;;;;;6.32;4.35;;;;;;;15.01;86.16;102062.94;5009401;28;20160;-74
2022/06/11 03:54:31;;;;;;;7.43;4.00;;;;;;;15.03;86.04;102058.25;4996165;28;20048;-74
2022/06/11 03:56:56;;;;;;;5.38;3.72;;;;;;;15.11;85.18;102074.13;4990440;28;20542;-74
2022/06/11 03:59:22;;;;;;;6.50;4.55;;;;;;;15.13;85.26;102078.53;4995383;28;20042;-73
2022/06/11 04:01:48;;;;;;;8.48;4.65;;;;;;;15.15;85.63;102075.66;5010611;28;20034;-75
2022/06/11 04:04:17;;;;;;;5.65;4.25;;;;;;;15.15;86.21;102068.31;4992584;28;20046;-74
2022/06/11 04:06:52;;;;;;;8.07;4.57;;;;;;;15.16;85.82;102083.78;4990244;28;20022;-74
2022/06/11 04:09:31;;;;;;;5.13;3.80;;;;;;;15.19;85.88;102071.72;5001428;28;20056;-74
2022/06/11 04:11:57;;;;;;;8.73;4.80;;;;;;;15.22;85.43;102079.72;4986174;28;20044;-74
2022/06/11 04:14:23;;;;;;;7.03;4.43;;;;;;;15.26;85.29;102078.53;4987955;28;20492;-74
2022/06/11 04:16:50;;;;;;;6.78;3.65;;;;;;;15.30;85.15;102086.41;5010390;28;20108;-74
2022/06/11 04:19:23;;;;;;;7.57;3.72;;;;;;;15.32;83.80;102087.16;4990912;28;20053;-74
2022/06/11 04:21:50;;;;;;;6.57;3.65;;;;;;;15.35;83.78;102086.06;5009977;28;20193;-71
2022/06/11 04:24:16;;;;;;;7.05;3.95;;;;;;;15.37;83.70;102096.94;5003849;28;20125;-74
2022/06/11 04:26:45;;;;;;;7.07;3.72;;;;;;;15.41;83.51;102093.84;5008519;28;20635;-74
2022/06/11 04:29:13;;;;;;;6.70;3.55;;;;;;;15.48;82.72;102103.41;4989388;28;20030;-73
2022/06/11 04:31:39;;;;;;;7.90;3.53;;;;;;;15.54;83.01;102094.72;5008968;28;20069;-74
2022/06/11 04:34:06;;;;;;;5.78;3.63;;;;;;;15.60;82.08;102098.84;5009476;28;20515;-74
2022/06/11 04:36:33;;;;;;;7.45;3.75;;;;;;;15.63;82.51;102106.88;4997425;28;20050;-74
2022/06/11 04:38:59;;;;;;;6.13;3.58;;;;;;;15.66;81.61;102105.78;4979456;28;20022;-74
2022/06/11 04:41:25;;;;;;;6.03;3.17;;;;;;;15.71;81.89;102100.84;5009679;28;20091;-74
2022/06/11 04:43:50;;;;;;;6.53;3.30;;;;;;;15.79;81.83;102106.63;5002611;28;20033;-75
2022/06/11 04:46:17;;;;;;;5.55;3.00;;;;;;;15.80;81.46;102106.50;4996030;28;20102;-75
2022/06/11 04:48:43;;;;;;;9.15;3.28;;;;;;;15.78;80.67;102107.63;5009459;28;20513;-75
2022/06/11 04:51:10;;;;;;;12.50;3.40;;;;;;;15.79;80.11;102113.00;4991603;28;20125;-73
2022/06/11 04:53:35;;;;;;;4.50;2.95;;;;;;;15.81;80.59;102112.91;5002179;28;20030;-74
2022/06/11 04:56:01;;;;;;;7.75;3.22;;;;;;;15.82;79.54;102100.94;4963832;28;20033;-74
2022/06/11 04:58:26;;;;;;;8.48;3.28;;;;;;;15.88;79.12;102105.94;4993450;28;20041;-74
2022/06/11 05:00:52;;;;;;;6.05;3.10;;;;;;;15.92;79.35;102103.88;4989261;28;20121;-74
2022/06/11 05:03:19;;;;;;;6.65;3.35;;;;;;;15.97;79.25;102113.50;4999228;28;20083;-74
2022/06/11 05:05:44;;;;;;;8.48;3.40;;;;;;;15.99;76.71;102102.41;4990398;28;20258;-74
2022/06/11 05:08:12;;;;;;;6.93;3.15;;;;;;;16.01;78.67;102105.91;4988180;28;20533;-74
2022/06/11 05:10:39;;;;;;;9.60;2.90;;;;;;;16.03;78.17;102107.53;4989473;28;20141;-74
2022/06/11 05:13:07;;;;;;;7.47;2.60;;;;;;;16.12;77.83;102110.59;4989002;28;20394;-74
2022/06/11 05:15:33;;;;;;;10.75;3.30;;;;;;;16.17;77.41;102114.72;4988955;28;20423;-73
2022/06/11 05:18:00;;;;;;;7.47;2.85;;;;;;;16.25;77.05;102116.91;4971882;28;20069;-74
2022/06/11 05:20:25;;;;;;;5.90;2.70;;;;;;;16.27;76.30;102126.81;4992068;28;20045;-74
2022/06/11 05:22:50;;;;;;;12.57;3.50;;;;;;;16.26;75.80;102121.41;5008989;28;20486;-74
2022/06/11 05:25:18;;;;;;;11.18;2.75;;;;;;;16.25;75.79;102126.03;5006377;28;20449;-74
2022/06/11 05:27:46;;;;;;;8.77;2.90;;;;;;;16.30;76.30;102115.56;5004523;28;20359;-74
2022/06/11 05:30:20;;;;;;;8.90;3.40;;;;;;;16.35;76.63;102111.59;4988981;28;20121;-74
2022/06/11 05:32:46;;;;;;;8.63;3.13;;;;;;;16.40;76.08;102123.09;4999560;28;20074;-74
2022/06/11 05:35:19;;;;;;;9.02;3.40;;;;;;;16.42;75.91;102123.88;4996135;28;20045;-74
2022/06/11 05:37:47;;;;;;;7.82;2.75;;;;;;;16.50;75.36;102114.00;4997214;28;20398;-74
2022/06/11 05:40:16;;;;;;;10.93;3.58;;;;;;;16.59;74.16;102112.44;4990148;28;20031;-74
2022/06/11 05:42:47;;;;;;;9.27;3.03;;;;;;;16.64;74.66;102125.81;4991104;28;20100;-74
2022/06/11 05:45:17;;;;;;;10.90;3.17;;;;;;;16.61;73.46;102124.19;4990965;28;20586;-75
2022/06/11 05:47:44;;;;;;;7.15;2.70;;;;;;;16.57;74.63;102123.56;4990702;28;20034;-75
2022/06/11 05:50:13;;;;;;;9.35;2.90;;;;;;;16.66;73.32;102132.09;4971301;28;20057;-74
2022/06/11 05:52:43;;;;;;;7.28;2.85;;;;;;;16.66;72.26;102129.34;4990903;28;20108;-74
2022/06/11 05:55:09;;;;;;;10.13;3.22;;;;;;;16.62;73.57;102123.19;4992387;28;20828;-74
2022/06/11 05:57:39;;;;;;;12.02;3.15;;;;;;;16.50;72.52;102124.13;4986726;28;20541;-74
2022/06/11 06:00:08;;;;;;;13.15;2.97;;;;;;;16.51;72.68;102125.91;4987962;28;20058;-74
2022/06/11 06:02:40;;;;;;;12.52;3.30;;;;;;;16.53;72.77;102121.16;4990678;28;20064;-75
2022/06/11 06:05:07;;;;;;;12.35;2.85;;;;;;;16.57;72.47;102120.81;4965626;28;20046;-74
2022/06/11 06:07:33;;;;;;;10.27;2.97;;;;;;;16.63;71.20;102127.69;4988942;28;20065;-74
2022/06/11 06:09:58;;;;;;;15.73;3.10;;;;;;;16.56;71.15;102138.28;4997555;28;20112;-73
2022/06/11 06:12:24;;;;;;;13.25;3.35;;;;;;;16.53;71.41;102130.28;5001902;28;20053;-74
2022/06/11 06:14:49;;;;;;;10.93;2.70;;;;;;;16.50;70.88;102130.50;4995092;28;20038;-74
2022/06/11 06:17:15;;;;;;;10.40;3.10;;;;;;;16.47;70.96;102136.25;5012546;28;20116;-76
2022/06/11 06:19:40;;;;;;;11.60;3.47;;;;;;;16.54;71.25;102144.88;4992995;28;20478;-74
2022/06/11 06:22:06;;;;;;;14.60;2.90;;;;;;;16.56;72.71;102137.41;4985203;28;20046;-75
2022/06/11 06:24:34;;;;;;;7.90;2.70;;;;;;;16.71;70.68;102138.09;4991616;28;20022;-74
2022/06/11 06:26:59;;;;;;;12.35;3.08;;;;;;;16.90;69.90;102143.94;4994791;28;20052;-75
2022/06/11 06:29:25;;;;;;;9.88;2.33;;;;;;;17.14;70.60;102134.75;4984020;28;20030;-74
2022/06/11 06:31:50;;;;;;;13.57;3.00;;;;;;;17.29;69.75;102141.75;4984695;28;20516;-75
2022/06/11 06:34:16;;;;;;;20.60;3.25;;;;;;;17.45;69.76;102146.94;5008288;28;20397;-76
2022/06/11 06:36:41;;;;;;;14.55;3.30;;;;;;;17.75;69.40;102160.09;4993010;28;20033;-76
2022/06/11 06:39:07;;;;;;;11.57;2.67;;;;;;;18.01;68.27;102155.19;4990591;28;20041;-74
2022/06/11 06:41:32;;;;;;;9.82;2.90;;;;;;;18.14;68.33;102155.94;4991298;28;20038;-75
2022/06/11 06:43:58;;;;;;;16.63;2.83;;;;;;;18.21;67.84;102153.53;4972990;28;20110;-74
2022/06/11 06:46:23;;;;;;;12.43;3.03;;;;;;;18.22;67.80;102155.25;4974362;28;20042;-75
2022/06/11 06:48:48;;;;;;;15.65;2.80;;;;;;;18.24;66.83;102147.75;4991990;28;20034;-74
2022/06/11 06:51:14;;;;;;;15.80;3.35;;;;;;;18.34;68.21;102149.59;4992449;28;20112;-75
2022/06/11 06:53:42;;;;;;;14.00;3.28;;;;;;;18.44;69.03;102148.81;4991355;28;20030;-75
2022/06/11 06:56:08;;;;;;;12.55;2.80;;;;;;;18.45;66.82;102151.44;4974445;28;20042;-75
2022/06/11 06:58:34;;;;;;;16.08;3.53;;;;;;;18.57;66.42;102160.56;4973513;28;20042;-75
2022/06/11 07:01:00;;;;;;;9.25;2.70;;;;;;;18.57;66.55;102164.19;4973967;28;20038;-74
2022/06/11 07:03:26;;;;;;;16.17;2.92;;;;;;;18.57;67.77;102152.28;4976014;28;20042;-76
2022/06/11 07:05:51;;;;;;;10.35;3.90;;;;;;;18.74;68.93;102156.38;5009288;28;20545;-75
2022/06/11 07:08:17;;;;;;;11.32;3.03;;;;;;;18.82;65.56;102157.47;4999050;28;20481;-76
2022/06/11 07:10:53;;;;;;;13.43;3.10;;;;;;;19.02;66.87;102157.59;4991800;28;20034;-75
2022/06/11 07:13:20;;;;;;;14.70;3.55;;;;;;;19.09;64.37;102156.06;4973772;28;20034;-72
2022/06/11 07:15:48;;;;;;;14.63;3.67;;;;;;;19.17;65.70;102144.38;4991454;28;20046;-76
2022/06/11 07:18:18;;;;;;;16.10;3.22;;;;;;;19.17;65.82;102142.50;4991996;28;20062;-75
2022/06/11 07:20:46;;;;;;;9.88;3.55;;;;;;;19.20;66.11;102142.19;4991533;28;20069;-74
2022/06/11 07:23:20;;;;;;;12.55;3.10;;;;;;;19.10;64.18;102131.09;4990981;28;20458;-75
2022/06/11 07:25:48;;;;;;;12.98;3.22;;;;;;;19.27;65.53;102140.66;4974402;28;20441;-75
2022/06/11 07:28:19;;;;;;;13.05;3.60;;;;;;;19.44;65.31;102152.06;4991389;28;20117;-75
2022/06/11 07:30:45;;;;;;;10.30;2.50;;;;;;;19.55;65.34;102149.25;4973802;28;20046;-76
2022/06/11 07:33:14;;;;;;;12.55;3.38;;;;;;;19.58;62.03;102159.97;4991506;28;20061;-74
2022/06/11 07:35:39;;;;;;;16.13;3.50;;;;;;;19.64;65.33;102155.84;4991344;28;20039;-74
2022/06/11 07:38:08;;;;;;;12.63;3.65;;;;;;;19.79;61.75;102157.22;4990999;28;20085;-75
2022/06/11 07:40:34;;;;;;;17.20;3.60;;;;;;;19.87;63.25;102163.81;4991177;28;20085;-76
2022/06/11 07:42:59;;;;;;;12.57;3.28;;;;;;;19.91;61.76;102161.66;4973129;28;20038;-75
2022/06/11 07:45:25;;;;;;;13.85;3.25;;;;;;;20.06;63.45;102160.22;4972801;28;20031;-75
2022/06/11 07:47:53;;;;;;;12.80;3.30;;;;;;;19.95;62.05;102162.22;4991377;28;20065;-75
2022/06/11 07:50:19;;;;;;;18.17;3.30;;;;;;;20.01;63.40;102164.44;4998095;28;20105;-72
2022/06/11 07:52:44;;;;;;;12.63;3.05;;;;;;;20.17;62.85;102166.66;4989208;28;20105;-76
2022/06/11 07:55:11;;;;;;;16.42;3.33;;;;;;;20.44;64.20;102163.22;4990718;28;20482;-75
2022/06/11 07:57:38;;;;;;;13.73;3.20;;;;;;;20.49;60.68;102145.22;4973260;28;20089;-75
2022/06/11 08:00:06;;;;;;;16.05;3.38;;;;;;;20.62;61.74;102147.69;4972154;28;20078;-76
2022/06/11 08:02:38;;;;;;;15.13;3.78;;;;;;;20.64;60.95;102148.41;4990731;28;20041;-75
2022/06/11 08:05:04;;;;;;;14.48;3.00;;;;;;;20.63;62.76;102152.22;5004311;28;20084;-76
2022/06/11 08:07:30;;;;;;;20.40;4.63;;;;;;;20.57;60.79;102170.25;4992638;28;20080;-75
2022/06/11 08:09:57;;;;;;;13.30;3.67;;;;;;;20.91;59.78;102164.28;4976668;28;20030;-75
2022/06/11 08:12:24;;;;;;;11.75;3.30;;;;;;;21.53;59.60;102170.31;4990201;28;20034;-75
2022/06/11 08:14:49;;;;;;;18.00;3.47;;;;;;;22.26;59.56;102165.81;4989910;28;20041;-72
2022/06/11 08:17:14;;;;;;;18.42;3.85;;;;;;;23.06;55.52;102169.56;4990448;28;20103;-76
2022/06/11 08:19:40;;;;;;;13.23;3.60;;;;;;;23.54;54.41;102170.09;4990133;28;20050;-76
2022/06/11 08:22:05;;;;;;;14.27;3.60;;;;;;;24.09;53.16;102172.50;4972899;28;20042;-75
2022/06/11 08:24:30;;;;;;;16.17;3.45;;;;;;;24.16;50.41;102174.47;4989874;28;20120;-76
2022/06/11 08:26:56;;;;;;;15.82;3.22;;;;;;;24.45;52.52;102173.19;4990011;28;20026;-76
2022/06/11 08:29:21;;;;;;;17.95;3.55;;;;;;;24.39;51.21;102174.75;4989521;28;20378;-76
2022/06/11 08:31:46;;;;;;;14.25;3.50;;;;;;;24.09;51.58;102181.72;4973320;28;20383;-75
2022/06/11 08:34:12;;;;;;;17.40;3.55;;;;;;;24.19;49.52;102188.00;4997822;28;20478;-75
2022/06/11 08:36:37;;;;;;;12.45;3.20;;;;;;;24.39;51.37;102185.88;5009369;28;20042;-75
2022/06/11 08:39:03;;;;;;;18.88;4.07;;;;;;;24.57;50.56;102179.28;4987861;28;20406;-76
2022/06/11 08:41:33;;;;;;;16.42;3.08;;;;;;;24.86;51.88;102192.75;4972584;28;20045;-75
2022/06/11 08:44:02;;;;;;;10.68;3.17;;;;;;;25.14;47.74;102191.41;4988876;28;20096;-75
2022/06/11 08:46:35;;;;;;;14.73;3.50;;;;;;;24.95;48.83;102191.72;4989863;28;20142;-77
2022/06/11 08:49:25;;;;;;;14.02;3.22;;;;;;;24.96;51.33;102196.25;4989387;28;20038;-75
2022/06/11 08:52:04;;;;;;;16.33;3.45;;;;;;;24.66;50.07;102192.19;4990029;28;20085;-75
2022/06/11 08:54:34;;;;;;;15.25;3.58;;;;;;;24.43;49.68;102186.38;4971437;28;20125;-75
2022/06/11 08:57:29;;;;;;;16.83;3.95;;;;;;;24.47;52.67;102187.78;4989253;28;20126;-75
2022/06/11 09:00:12;;;;;;;11.23;3.20;;;;;;;24.39;51.26;102185.00;4971462;28;20120;-77
2022/06/11 09:02:57;;;;;;;16.63;3.33;;;;;;;24.32;52.15;102184.75;4989802;28;20030;-77
2022/06/11 09:05:47;;;;;;;18.15;3.47;;;;;;;23.96;51.45;102184.09;5007034;28;20044;-73
2022/06/11 09:08:23;;;;;;;14.93;3.55;;;;;;;24.01;53.78;102194.72;4998837;28;20042;-75
2022/06/11 09:11:12;;;;;;;13.98;4.30;;;;;;;23.84;52.52;102183.53;4972417;28;20042;-76
2022/06/11 09:13:41;;;;;;;15.95;3.83;;;;;;;24.00;52.16;102187.41;4988830;28;20474;-74
2022/06/11 09:16:25;;;;;;;15.20;3.63;;;;;;;24.22;51.29;102177.59;4988992;28;20113;-75
2022/06/11 09:18:53;;;;;;;17.73;3.72;;;;;;;24.04;49.91;102177.69;4955582;28;20063;-75
2022/06/11 09:21:36;;;;;;;18.38;3.08;;;;;;;23.93;51.51;102176.97;4989714;28;20746;-72
2022/06/11 09:24:10;;;;;;;17.80;4.18;;;;;;;23.88;51.73;102186.84;4988876;28;20068;-76
2022/06/11 09:26:46;;;;;;;17.02;3.47;;;;;;;23.97;52.10;102182.19;4971980;28;20054;-75
2022/06/11 09:29:28;;;;;;;16.00;4.05;;;;;;;24.09;52.75;102178.06;4985113;28;20520;-75
2022/06/11 09:32:11;;;;;;;13.55;3.88;;;;;;;24.37;52.29;102185.16;4989476;28;20046;-77
2022/06/11 09:34:51;;;;;;;15.68;4.40;;;;;;;24.55;52.08;102184.16;4992932;28;20053;-75
2022/06/11 09:37:46;;;;;;;13.23;3.75;;;;;;;24.27;53.41;102191.88;5006525;28;20042;-74
2022/06/11 09:40:31;;;;;;;16.65;3.83;;;;;;;24.31;51.86;102185.81;4991228;28;20068;-75
2022/06/11 09:43:18;;;;;;;18.33;4.53;;;;;;;24.76;53.07;102192.03;4989052;28;20050;-75
2022/06/11 09:46:02;;;;;;;16.50;3.72;;;;;;;25.08;51.56;102188.44;4988865;28;20498;-76
2022/06/11 09:48:41;;;;;;;22.58;4.00;;;;;;;25.49;49.76;102185.63;4989432;28;20128;-75
2022/06/11 09:51:29;;;;;;;20.40;4.05;;;;;;;25.98;49.43;102186.41;4975791;28;20050;-75
2022/06/11 09:54:23;;;;;;;17.83;3.75;;;;;;;26.58;47.66;102188.59;4992400;28;20331;-76
2022/06/11 09:57:19;;;;;;;19.77;4.50;;;;;;;26.81;48.63;102180.22;4992698;28;20060;-71
2022/06/11 09:59:51;;;;;;;16.67;4.18;;;;;;;26.66;43.49;102173.69;4992761;28;20039;-77
2022/06/11 10:02:49;;;;;;;12.52;3.13;;;;;;;26.83;46.88;102175.34;4975942;28;20498;-75
2022/06/11 10:05:20;;;;;;;9.55;3.22;;;;;;;26.65;46.61;102174.75;5009596;28;20076;-77
2022/06/11 10:07:51;;;;;;;15.88;3.20;;;;;;;26.60;44.71;102171.66;5012831;28;20038;-76
2022/06/11 10:10:25;;;;;;;13.10;3.28;;;;;;;26.60;44.03;102180.03;4994817;28;20630;-75
2022/06/11 10:13:07;;;;;;;13.90;2.90;;;;;;;26.78;41.94;102183.41;4992733;28;20061;-76
2022/06/11 10:15:36;;;;;;;16.15;3.40;;;;;;;26.65;40.98;102180.34;4992525;28;20069;-75
2022/06/11 10:18:19;;;;;;;15.77;3.40;;;;;;;26.73;43.25;102183.09;4975285;28;20073;-77
2022/06/11 10:20:53;;;;;;;10.05;2.40;;;;;;;26.41;40.48;102181.34;4992895;28;20394;-77
2022/06/11 10:23:21;;;;;;;12.40;2.83;;;;;;;26.33;43.14;102185.03;4992798;28;20485;-72
2022/06/11 10:25:57;;;;;;;12.45;3.00;;;;;;;26.35;43.88;102194.09;4993090;28;20042;-76
2022/06/11 10:28:31;;;;;;;15.43;3.33;;;;;;;26.37;40.75;102191.97;4974566;28;20498;-72
2022/06/11 10:31:11;;;;;;;13.73;3.30;;;;;;;26.32;44.26;102188.88;4992038;28;20038;-76
2022/06/11 10:33:53;;;;;;;13.98;3.22;;;;;;;26.48;44.82;102179.56;4978189;28;20987;-76
2022/06/11 10:36:26;;;;;;;10.02;2.55;;;;;;;26.88;45.54;102183.16;5005692;28;20477;-71
2022/06/11 10:39:05;;;;;;;13.70;3.03;;;;;;;27.05;42.82;102190.34;4991910;28;20045;-75
2022/06/11 10:42:03;;;;;;;12.93;3.13;;;;;;;27.21;44.70;102189.38;4975170;28;20541;-75
2022/06/11 10:44:41;;;;;;;13.75;3.08;;;;;;;27.23;43.85;102187.25;4981014;28;20573;-75
2022/06/11 10:47:22;;;;;;;15.68;3.75;;;;;;;27.20;44.14;102187.63;4992319;28;20437;-76
2022/06/11 10:50:01;;;;;;;10.82;2.95;;;;;;;27.48;42.13;102187.03;4992401;28;20034;-76
2022/06/11 10:52:46;;;;;;;14.68;3.88;;;;;;;27.71;41.96;102188.72;4992347;28;20125;-76
2022/06/11 10:55:27;;;;;;;19.38;3.30;;;;;;;27.64;43.33;102186.84;4991876;28;20046;-75
2022/06/11 10:57:54;;;;;;;10.85;3.40;;;;;;;27.79;43.21;102179.38;4991904;28;20039;-75
2022/06/11 11:00:30;;;;;;;20.25;3.45;;;;;;;27.94;43.10;102182.19;4973178;28;20050;-75
2022/06/11 11:03:01;;;;;;;14.65;4.00;;;;;;;28.08;43.62;102180.44;4992191;28;20046;-76
2022/06/11 11:05:45;;;;;;;13.50;3.58;;;;;;;28.44;41.78;102186.94;4995622;28;20509;-77
2022/06/11 11:08:12;;;;;;;9.93;3.17;;;;;;;28.62;41.12;102186.53;4991670;28;20069;-75
2022/06/11 11:10:37;;;;;;;12.88;3.65;;;;;;;28.59;41.29;102189.75;4991815;28;20390;-74
2022/06/11 11:13:32;;;;;;;12.33;3.50;;;;;;;28.64;41.91;102181.59;4974065;28;20093;-76
2022/06/11 11:16:23;;;;;;;11.80;3.35;;;;;;;28.63;41.67;102177.09;4973423;28;20293;-74
2022/06/11 11:19:05;;;;;;;19.27;3.67;;;;;;;28.40;42.21;102176.38;4974397;28;20398;-71
2022/06/11 11:21:35;;;;;;;15.68;4.10;;;;;;;28.66;41.88;102171.06;4974343;28;20038;-75
2022/06/11 11:24:11;;;;;;;16.88;4.25;;;;;;;28.86;41.51;102174.06;4990976;28;20566;-76
2022/06/11 11:26:45;;;;;;;15.35;3.78;;;;;;;29.07;41.95;102175.19;4991571;28;20078;-75
2022/06/11 11:29:23;;;;;;;15.65;3.45;;;;;;;28.95;38.24;102167.28;4972791;28;20497;-75
2022/06/11 11:31:53;;;;;;;18.55;3.90;;;;;;;28.95;39.45;102160.81;4991918;28;20125;-74
2022/06/11 11:34:30;;;;;;;17.23;3.50;;;;;;;28.90;40.45;102164.19;5000597;28;20129;-74
2022/06/11 11:37:17;;;;;;;15.20;3.72;;;;;;;28.94;38.44;102161.88;5010957;28;20041;-75
2022/06/11 11:40:00;;;;;;;12.63;3.67;;;;;;;29.09;41.37;102164.63;4988271;28;20096;-75
2022/06/11 11:42:25;;;;;;;19.60;4.30;;;;;;;29.21;39.22;102163.03;4973873;28;20034;-75